Time;durP1;ratioP1;P1;durP2;ratioP2;P2;SDS_P1;SDS_P2;PMS_P1;PMS_P2;Temp;Humidity;BMP_temperature;BMP_pressure;BME280_temperature;BME280_humidity;BME280_pressure;Samples;Min_cycle;Max_cycle;Signal;HPM_P1;HPM_P2
2022/02/26 00:00:16;;;;;;;7.57;2.45;;;;;;;3.89;61.55;96367.69;5050429;28;20021;-69
2022/02/26 00:02:41;;;;;;;7.75;1.73;;;;;;;4.09;60.93;96395.47;5050559;28;20020;-69
2022/02/26 00:05:07;;;;;;;6.07;2.15;;;;;;;3.70;61.78;96394.38;5049220;28;20048;-69
2022/02/26 00:07:33;;;;;;;8.05;2.35;;;;;;;3.87;61.06;96388.16;5050779;28;20036;-70
2022/02/26 00:10:00;;;;;;;10.45;2.20;;;;;;;4.14;61.01;96401.63;5050411;28;20066;-69
2022/02/26 00:12:25;;;;;;;7.03;2.35;;;;;;;4.31;59.78;96393.03;5050589;28;20150;-69
2022/02/26 00:14:50;;;;;;;7.88;1.90;;;;;;;3.80;61.14;96387.50;5050738;28;20048;-69
2022/02/26 00:17:16;;;;;;;8.02;2.03;;;;;;;3.58;62.40;96413.59;5050594;28;20028;-70
2022/02/26 00:19:41;;;;;;;7.05;2.17;;;;;;;4.18;60.93;96412.50;5049853;28;20094;-70
2022/02/26 00:22:07;;;;;;;9.70;2.40;;;;;;;3.80;61.76;96418.28;5048926;28;20021;-69
2022/02/26 00:24:32;;;;;;;6.72;2.20;;;;;;;3.96;60.86;96408.88;5049377;28;20474;-69
2022/02/26 00:26:57;;;;;;;5.40;2.33;;;;;;;3.65;61.89;96435.31;5049286;28;20025;-69
2022/02/26 00:29:23;;;;;;;7.55;2.58;;;;;;;4.14;60.99;96430.59;5050309;28;20029;-70
2022/02/26 00:31:48;;;;;;;9.27;2.35;;;;;;;4.36;59.19;96416.84;5048742;28;20017;-69
2022/02/26 00:34:14;;;;;;;7.35;2.33;;;;;;;3.79;61.74;96429.84;5050156;28;20051;-69
2022/02/26 00:36:39;;;;;;;7.65;2.45;;;;;;;4.78;59.24;96427.94;5069817;28;20500;-69
2022/02/26 00:39:05;;;;;;;4.63;2.13;;;;;;;4.30;59.11;96409.84;5054319;28;20028;-69
2022/02/26 00:41:30;;;;;;;7.57;2.40;;;;;;;4.24;60.67;96439.75;5052751;28;20512;-69
2022/02/26 00:43:56;;;;;;;9.73;3.03;;;;;;;4.82;58.62;96428.25;5053150;28;20017;-69
2022/02/26 00:46:21;;;;;;;9.65;2.92;;;;;;;4.20;59.18;96404.38;5053348;28;20053;-69
2022/02/26 00:51:31;;;;;;;5.78;2.35;;;;;;;4.22;60.68;96431.28;5053927;28;20163;-69
2022/02/26 00:53:56;;;;;;;6.38;2.80;;;;;;;4.75;59.53;96448.66;5054379;28;20092;-69
2022/02/26 00:56:21;;;;;;;11.02;3.15;;;;;;;3.85;61.39;96427.09;5054399;28;20481;-70
2022/02/26 00:58:48;;;;;;;7.68;3.13;;;;;;;3.51;62.94;96446.28;5052956;28;20029;-69
2022/02/26 01:01:14;;;;;;;4.57;2.42;;;;;;;3.77;62.25;96456.38;5054064;28;20025;-70
2022/02/26 01:03:40;;;;;;;15.65;3.38;;;;;;;4.21;60.94;96448.94;5053695;28;20043;-69
2022/02/26 01:06:05;;;;;;;7.55;3.00;;;;;;;4.05;60.94;96432.00;5053982;28;20029;-69
2022/02/26 01:08:30;;;;;;;11.13;2.70;;;;;;;3.76;61.96;96438.19;5053809;28;20021;-69
2022/02/26 01:10:56;;;;;;;7.00;2.95;;;;;;;4.42;60.20;96423.81;5053847;28;20032;-70
2022/02/26 01:13:21;;;;;;;7.90;3.13;;;;;;;4.23;60.55;96438.16;5070188;28;20025;-70
2022/02/26 01:15:47;;;;;;;7.88;3.20;;;;;;;4.51;60.24;96453.22;5054074;28;20711;-69
2022/02/26 01:18:12;;;;;;;7.00;3.05;;;;;;;4.52;59.78;96444.28;5068965;28;20036;-69
2022/02/26 01:20:37;;;;;;;9.98;3.20;;;;;;;3.62;61.79;96456.81;5051824;28;20032;-69
2022/02/26 01:23:03;;;;;;;10.63;3.25;;;;;;;3.86;61.76;96462.09;5052320;28;20025;-69
2022/02/26 01:25:29;;;;;;;7.22;3.22;;;;;;;3.79;61.85;96454.34;5068877;28;20057;-69
2022/02/26 01:27:54;;;;;;;11.45;3.15;;;;;;;3.66;62.13;96457.16;5053655;28;20035;-70
2022/02/26 01:30:19;;;;;;;5.13;2.67;;;;;;;3.20;63.66;96468.41;5053270;28;20032;-69
2022/02/26 01:32:45;;;;;;;7.88;3.80;;;;;;;3.65;62.34;96463.47;5053547;28;20025;-69
2022/02/26 01:35:10;;;;;;;8.45;2.40;;;;;;;3.26;63.12;96478.81;5051549;28;20029;-69
2022/02/26 01:37:36;;;;;;;10.30;3.50;;;;;;;3.84;62.12;96488.66;5051999;28;20102;-69
2022/02/26 01:40:02;;;;;;;7.82;3.55;;;;;;;3.88;60.75;96475.81;5052997;28;20021;-70
2022/02/26 01:42:27;;;;;;;9.38;3.85;;;;;;;3.63;62.38;96476.84;5052082;28;20031;-70
2022/02/26 01:44:54;;;;;;;9.93;3.80;;;;;;;4.15;61.06;96479.63;5053275;28;20021;-69
2022/02/26 01:47:20;;;;;;;9.93;3.80;;;;;;;4.56;59.53;96485.75;5052530;28;20029;-69
2022/02/26 01:49:46;;;;;;;5.80;3.28;;;;;;;3.78;62.25;96494.81;5052386;28;20131;-70
2022/02/26 01:52:13;;;;;;;5.93;3.08;;;;;;;4.64;59.22;96476.66;5053041;28;20021;-69
2022/02/26 01:54:39;;;;;;;10.75;3.42;;;;;;;5.16;57.98;96480.03;5053059;28;20025;-69
2022/02/26 01:57:05;;;;;;;8.90;3.45;;;;;;;4.52;58.51;96452.19;5051802;28;20490;-70
2022/02/26 01:59:31;;;;;;;5.20;2.75;;;;;;;4.84;58.43;96482.34;5052838;28;20056;-69
2022/02/26 02:01:56;;;;;;;7.82;3.45;;;;;;;4.70;57.96;96471.25;5051764;28;20067;-69
2022/02/26 02:04:21;;;;;;;6.28;3.30;;;;;;;5.00;57.67;96451.78;5052738;28;20036;-69
2022/02/26 02:06:47;;;;;;;5.38;2.90;;;;;;;5.12;57.75;96476.28;5052797;28;20033;-70
2022/02/26 02:09:12;;;;;;;9.27;2.97;;;;;;;4.04;59.39;96448.81;5052605;28;20421;-70
2022/02/26 02:11:38;;;;;;;7.10;2.95;;;;;;;4.23;59.64;96469.75;5052485;28;20029;-69
2022/02/26 02:14:04;;;;;;;6.53;3.00;;;;;;;4.66;58.02;96483.31;5052817;28;20362;-69
2022/02/26 02:16:30;;;;;;;12.18;3.80;;;;;;;4.62;59.14;96476.91;5052778;28;20388;-69
2022/02/26 02:18:56;;;;;;;6.82;3.17;;;;;;;4.30;59.60;96478.31;5051878;28;20025;-69
2022/02/26 02:21:22;;;;;;;5.80;3.22;;;;;;;4.60;58.30;96464.97;5052286;28;20033;-69
2022/02/26 02:23:47;;;;;;;6.13;2.72;;;;;;;4.15;59.54;96479.63;5051243;28;20033;-69
2022/02/26 02:26:13;;;;;;;5.57;2.90;;;;;;;4.32;59.32;96486.81;5052445;28;20075;-69
2022/02/26 02:28:40;;;;;;;4.95;3.22;;;;;;;5.16;57.43;96481.88;5051029;28;20100;-69
2022/02/26 02:31:07;;;;;;;7.38;3.10;;;;;;;4.84;57.74;96473.63;5052128;28;20104;-69
2022/02/26 02:33:41;;;;;;;5.22;2.90;;;;;;;5.05;57.22;96483.53;5051853;28;20540;-69
2022/02/26 02:36:07;;;;;;;10.15;3.47;;;;;;;5.35;55.74;96479.84;5050618;28;20071;-69
2022/02/26 02:38:32;;;;;;;6.32;2.53;;;;;;;5.40;55.40;96485.19;5052004;28;20029;-69
2022/02/26 02:40:58;;;;;;;5.97;2.78;;;;;;;5.72;54.46;96485.47;5050787;28;20492;-69
2022/02/26 02:43:23;;;;;;;8.32;2.92;;;;;;;5.72;54.69;96482.81;5052252;28;20437;-70
2022/02/26 02:45:49;;;;;;;7.82;3.13;;;;;;;5.77;53.86;96479.47;5052282;28;20112;-69
2022/02/26 02:48:15;;;;;;;6.22;2.83;;;;;;;5.50;53.70;96440.50;5051719;28;20032;-69
2022/02/26 02:50:41;;;;;;;4.95;2.60;;;;;;;5.48;54.21;96464.50;5051241;28;20032;-70
2022/02/26 02:53:06;;;;;;;5.75;2.63;;;;;;;6.00;52.73;96492.53;5050894;28;20025;-69
2022/02/26 02:55:32;;;;;;;7.75;2.90;;;;;;;5.12;55.49;96507.94;5051884;28;20029;-70
2022/02/26 02:57:59;;;;;;;4.55;2.10;;;;;;;5.05;55.49;96496.72;5051959;28;20489;-69
2022/02/26 03:00:25;;;;;;;3.65;2.35;;;;;;;5.21;55.06;96517.06;5050085;28;20430;-70
2022/02/26 03:02:50;;;;;;;3.75;2.45;;;;;;;5.01;55.15;96482.38;5050594;28;20021;-69
2022/02/26 03:05:18;;;;;;;5.95;2.50;;;;;;;5.45;53.46;96482.66;5049706;28;20025;-69
2022/02/26 03:07:44;;;;;;;3.30;2.17;;;;;;;5.65;53.94;96505.94;5067166;28;20029;-69
2022/02/26 03:10:10;;;;;;;7.88;2.28;;;;;;;5.20;54.67;96512.81;5051205;28;20029;-69
2022/02/26 03:12:36;;;;;;;5.57;2.65;;;;;;;5.62;54.03;96527.53;5051562;28;20385;-69
2022/02/26 03:15:03;;;;;;;6.78;2.50;;;;;;;5.67;53.53;96519.69;5050302;28;20021;-70
2022/02/26 03:17:28;;;;;;;7.95;2.42;;;;;;;5.25;54.54;96527.94;5051631;28;20029;-69
2022/02/26 03:19:53;;;;;;;7.18;2.50;;;;;;;5.29;53.89;96509.81;5050961;28;20031;-70
2022/02/26 03:22:20;;;;;;;4.05;1.95;;;;;;;5.86;53.06;96523.72;5049685;28;20028;-69
2022/02/26 03:24:46;;;;;;;5.97;2.55;;;;;;;5.51;53.95;96507.28;5051400;28;20024;-69
2022/02/26 03:27:11;;;;;;;4.22;2.60;;;;;;;5.73;53.25;96522.22;5049979;28;20389;-70
2022/02/26 03:29:37;;;;;;;6.65;2.60;;;;;;;5.74;54.05;96542.28;5051946;28;20063;-70
2022/02/26 03:32:03;;;;;;;7.15;2.65;;;;;;;6.20;52.89;96537.75;5050829;28;20025;-69
2022/02/26 03:34:28;;;;;;;6.63;3.00;;;;;;;5.85;53.39;96529.25;5049707;28;20056;-68
2022/02/26 03:36:57;;;;;;;5.25;2.97;;;;;;;5.58;54.16;96516.66;5050974;28;20659;-70
2022/02/26 03:39:23;;;;;;;5.50;3.25;;;;;;;4.96;55.95;96529.75;5066246;28;20028;-69
2022/02/26 03:41:49;;;;;;;8.77;3.38;;;;;;;5.13;56.04;96535.91;5049800;28;20025;-69
2022/02/26 03:44:14;;;;;;;7.65;3.15;;;;;;;4.92;57.16;96528.66;5049808;28;20063;-69
2022/02/26 03:46:40;;;;;;;6.13;3.30;;;;;;;4.74;57.75;96541.97;5051056;28;20390;-69
2022/02/26 03:49:06;;;;;;;6.32;2.63;;;;;;;5.05;56.66;96536.25;5050407;28;20104;-69
2022/02/26 03:51:33;;;;;;;7.45;3.00;;;;;;;4.78;57.82;96543.91;5050565;28;20044;-69
2022/02/26 03:53:58;;;;;;;5.22;2.90;;;;;;;4.91;58.13;96559.47;5050897;28;20520;-69
2022/02/26 03:56:24;;;;;;;3.75;2.78;;;;;;;4.65;58.86;96573.94;5049726;28;20120;-69
2022/02/26 03:58:51;;;;;;;6.40;2.85;;;;;;;4.17;60.38;96576.81;5050727;28;20025;-69
2022/02/26 04:01:18;;;;;;;8.85;3.05;;;;;;;4.55;59.58;96576.34;5049414;28;20025;-69
2022/02/26 04:03:44;;;;;;;5.50;3.00;;;;;;;4.61;58.98;96575.47;5049220;28;20029;-69
2022/02/26 04:06:09;;;;;;;7.40;3.40;;;;;;;4.36;59.61;96564.34;5050753;28;20139;-69
2022/02/26 04:08:35;;;;;;;8.88;3.60;;;;;;;4.04;61.46;96566.50;5050188;28;20115;-70
2022/02/26 04:11:00;;;;;;;5.20;3.67;;;;;;;4.13;62.15;96586.19;5050307;28;20538;-69
2022/02/26 04:13:26;;;;;;;7.45;3.63;;;;;;;4.63;60.38;96577.84;5049473;28;20051;-69
2022/02/26 04:15:51;;;;;;;7.47;3.92;;;;;;;4.68;60.88;96597.22;5050838;28;20037;-70
2022/02/26 04:18:16;;;;;;;9.80;4.25;;;;;;;4.08;62.32;96586.88;5050668;28;20078;-69
2022/02/26 04:20:42;;;;;;;8.60;4.35;;;;;;;4.44;61.74;96567.44;5049612;28;20029;-69
2022/02/26 04:23:08;;;;;;;10.55;4.53;;;;;;;5.10;59.70;96572.50;5049160;28;20108;-69
2022/02/26 04:25:33;;;;;;;6.68;4.13;;;;;;;4.98;59.50;96569.88;5050602;28;20033;-69
2022/02/26 04:27:59;;;;;;;7.60;4.60;;;;;;;5.40;58.28;96580.19;5049330;28;20265;-69
2022/02/26 04:30:24;;;;;;;11.25;5.07;;;;;;;5.37;58.46;96573.53;5048746;28;20396;-69
2022/02/26 04:32:49;;;;;;;7.05;4.25;;;;;;;5.46;58.67;96579.25;5050527;28;20025;-69
2022/02/26 04:35:15;;;;;;;7.68;4.13;;;;;;;4.93;59.76;96577.69;5050130;28;20037;-70
2022/02/26 04:37:40;;;;;;;7.57;4.75;;;;;;;4.82;60.24;96562.72;5050283;28;20087;-71
2022/02/26 04:40:07;;;;;;;11.65;4.50;;;;;;;4.67;60.67;96579.00;5049931;28;20104;-68
2022/02/26 04:42:33;;;;;;;13.52;4.63;;;;;;;5.59;58.80;96565.78;5050358;28;20401;-69
2022/02/26 04:44:58;;;;;;;6.70;4.65;;;;;;;6.36;56.95;96561.78;5048979;28;20032;-69
2022/02/26 04:47:24;;;;;;;7.55;4.88;;;;;;;6.54;56.00;96574.72;5048976;28;20338;-70
2022/02/26 04:49:49;;;;;;;10.55;5.53;;;;;;;6.36;55.19;96585.56;5048266;28;20129;-69
2022/02/26 04:52:14;;;;;;;6.88;4.22;;;;;;;6.44;55.86;96599.16;5065422;28;20120;-69
2022/02/26 04:54:40;;;;;;;10.75;4.45;;;;;;;6.33;56.00;96588.66;5050251;28;20025;-69
2022/02/26 04:57:05;;;;;;;5.05;3.75;;;;;;;5.86;56.22;96595.00;5050087;28;20087;-69
2022/02/26 04:59:30;;;;;;;7.95;4.00;;;;;;;5.60;56.17;96566.56;5049898;28;20053;-69
2022/02/26 05:01:56;;;;;;;5.35;4.22;;;;;;;5.79;56.79;96589.09;5049580;28;20489;-70
2022/02/26 05:04:21;;;;;;;10.27;4.20;;;;;;;5.86;56.66;96588.94;5048488;28;20103;-70
2022/02/26 05:06:47;;;;;;;6.07;4.18;;;;;;;5.40;57.78;96590.75;5065634;28;20036;-69
2022/02/26 05:09:12;;;;;;;7.78;4.47;;;;;;;4.60;60.01;96583.56;5050316;28;20381;-70
2022/02/26 05:11:37;;;;;;;7.70;3.50;;;;;;;4.60;59.43;96594.13;5065616;28;20029;-71
2022/02/26 05:14:03;;;;;;;8.15;3.92;;;;;;;4.44;60.71;96600.88;5050688;28;20029;-69
2022/02/26 05:16:28;;;;;;;5.88;3.85;;;;;;;4.63;59.83;96615.56;5050043;28;20033;-70
2022/02/26 05:18:54;;;;;;;12.82;3.83;;;;;;;4.80;59.82;96615.66;5049424;28;20058;-69
2022/02/26 05:21:19;;;;;;;7.80;3.42;;;;;;;5.10;58.14;96583.84;5049732;28;20033;-71
2022/02/26 05:23:45;;;;;;;6.80;3.97;;;;;;;5.88;57.00;96621.19;5053879;28;20032;-69
2022/02/26 05:26:12;;;;;;;7.95;3.47;;;;;;;5.27;57.55;96588.38;5053696;28;20029;-69
2022/02/26 05:28:38;;;;;;;8.25;3.70;;;;;;;5.90;56.04;96611.19;5052309;28;20021;-69
2022/02/26 05:31:04;;;;;;;8.27;3.63;;;;;;;5.87;55.86;96593.97;5053039;28;20032;-69
2022/02/26 05:33:29;;;;;;;6.20;3.90;;;;;;;6.57;55.35;96624.47;5053472;28;20176;-69
2022/02/26 05:35:55;;;;;;;6.47;3.95;;;;;;;5.94;55.47;96605.25;5051584;28;20029;-69
2022/02/26 05:38:20;;;;;;;8.02;3.25;;;;;;;5.46;57.64;96606.44;5052120;28;20417;-69
2022/02/26 05:40:46;;;;;;;14.02;3.80;;;;;;;5.04;58.47;96637.53;5052823;28;20386;-69
2022/02/26 05:43:11;;;;;;;8.02;3.63;;;;;;;4.94;58.87;96630.19;5053365;28;20021;-69
2022/02/26 05:45:36;;;;;;;4.88;3.17;;;;;;;4.77;59.25;96615.31;5052593;28;20021;-70
2022/02/26 05:48:02;;;;;;;7.68;3.60;;;;;;;4.33;61.11;96630.66;5053822;28;20421;-70
2022/02/26 05:50:27;;;;;;;8.13;4.35;;;;;;;4.95;59.96;96650.25;5052153;28;20074;-69
2022/02/26 05:52:53;;;;;;;8.20;4.18;;;;;;;4.79;59.71;96626.44;5053125;28;20483;-70
2022/02/26 05:55:18;;;;;;;8.27;3.90;;;;;;;5.66;58.32;96639.53;5053223;28;20520;-69
2022/02/26 05:57:43;;;;;;;5.65;3.75;;;;;;;5.52;58.31;96628.44;5053130;28;20044;-69
2022/02/26 06:00:09;;;;;;;9.90;4.10;;;;;;;4.51;60.71;96662.19;5051512;28;20112;-69
2022/02/26 06:02:35;;;;;;;10.93;3.75;;;;;;;4.70;60.67;96653.13;5068601;28;20036;-69
2022/02/26 06:05:01;;;;;;;8.60;3.78;;;;;;;4.96;60.00;96656.31;5052469;28;20029;-69
2022/02/26 06:07:26;;;;;;;9.85;3.85;;;;;;;5.10;58.85;96668.25;5051465;28;20481;-69
2022/02/26 06:09:51;;;;;;;5.93;4.20;;;;;;;4.92;59.68;96658.63;5052489;28;20384;-69
2022/02/26 06:12:17;;;;;;;6.50;3.80;;;;;;;4.94;59.28;96655.75;5052590;28;20028;-69
2022/02/26 06:14:42;;;;;;;8.98;4.20;;;;;;;4.46;60.30;96666.53;5052908;28;20033;-69
2022/02/26 06:17:08;;;;;;;11.13;4.13;;;;;;;4.10;61.62;96663.03;5052717;28;20056;-69
2022/02/26 06:19:33;;;;;;;7.75;4.00;;;;;;;4.52;60.28;96682.22;5067422;28;20496;-69
2022/02/26 06:21:58;;;;;;;8.82;4.32;;;;;;;4.78;60.27;96686.25;5052372;28;20017;-69
2022/02/26 06:24:24;;;;;;;10.05;4.38;;;;;;;5.32;58.59;96697.44;5052672;28;20103;-70
2022/02/26 06:26:49;;;;;;;8.10;4.57;;;;;;;5.97;57.99;96672.63;5051605;28;20025;-69
2022/02/26 06:29:15;;;;;;;10.43;4.43;;;;;;;4.99;59.05;96661.16;5052224;28;20107;-69
2022/02/26 06:31:40;;;;;;;8.10;4.10;;;;;;;4.89;60.29;96697.84;5050610;28;20035;-69
2022/02/26 06:34:06;;;;;;;6.05;3.75;;;;;;;4.47;59.57;96663.66;5051153;28;20025;-69
2022/02/26 06:36:33;;;;;;;7.95;4.30;;;;;;;5.23;59.30;96693.59;5051521;28;20025;-70
2022/02/26 06:38:59;;;;;;;9.65;4.78;;;;;;;4.90;59.33;96710.78;5052166;28;20047;-69
2022/02/26 06:41:24;;;;;;;7.00;4.65;;;;;;;5.36;58.61;96695.16;5052194;28;20048;-69
2022/02/26 06:43:50;;;;;;;10.52;4.88;;;;;;;5.60;57.51;96719.66;5052554;28;20112;-69
2022/02/26 06:46:15;;;;;;;10.30;4.65;;;;;;;5.73;56.38;96675.34;5052642;28;20052;-69
2022/02/26 06:48:41;;;;;;;6.85;4.20;;;;;;;5.22;57.38;96695.44;5052018;28;20524;-69
2022/02/26 06:51:07;;;;;;;8.85;4.60;;;;;;;5.34;57.26;96678.75;5051325;28;20032;-69
2022/02/26 06:53:32;;;;;;;9.15;4.53;;;;;;;4.98;58.86;96722.84;5050323;28;20511;-69
2022/02/26 06:55:58;;;;;;;10.40;4.63;;;;;;;5.04;58.62;96719.28;5051920;28;20020;-68
2022/02/26 06:58:23;;;;;;;8.43;4.93;;;;;;;5.28;57.41;96728.00;5051825;28;20086;-69
2022/02/26 07:00:48;;;;;;;8.02;4.85;;;;;;;5.90;56.28;96714.19;5051544;28;20109;-69
2022/02/26 07:03:14;;;;;;;17.15;4.30;;;;;;;5.39;56.76;96713.97;5051956;28;20055;-69
2022/02/26 07:05:39;;;;;;;11.30;4.93;;;;;;;5.11;58.16;96727.06;5050355;28;20393;-70
2022/02/26 07:08:04;;;;;;;10.48;4.97;;;;;;;4.64;58.80;96690.94;5050411;28;20028;-68
2022/02/26 07:10:30;;;;;;;10.77;4.50;;;;;;;5.14;57.87;96716.06;5051133;28;20029;-69
2022/02/26 07:12:55;;;;;;;11.38;4.88;;;;;;;5.59;57.17;96720.72;5051729;28;20033;-69
2022/02/26 07:15:21;;;;;;;9.40;4.47;;;;;;;6.74;54.90;96744.25;5050252;28;20111;-71
2022/02/26 07:17:46;;;;;;;7.13;4.43;;;;;;;5.58;56.41;96741.03;5050357;28;20021;-68
2022/02/26 07:20:12;;;;;;;7.43;4.93;;;;;;;5.47;56.60;96728.63;5050777;28;20468;-70
2022/02/26 07:22:38;;;;;;;8.38;4.88;;;;;;;4.97;57.49;96755.53;5051178;28;20025;-71
2022/02/26 07:25:04;;;;;;;6.55;4.22;;;;;;;4.47;59.50;96761.16;5051568;28;20036;-70
2022/02/26 07:27:29;;;;;;;11.93;5.35;;;;;;;5.69;56.67;96753.41;5050106;28;20029;-70
2022/02/26 07:29:55;;;;;;;7.50;4.63;;;;;;;5.00;58.41;96746.34;5050905;28;20178;-70
2022/02/26 07:32:20;;;;;;;10.25;4.90;;;;;;;4.85;57.69;96712.50;5051282;28;20066;-70
2022/02/26 07:34:46;;;;;;;12.23;5.85;;;;;;;5.87;56.44;96768.25;5049608;28;20057;-71
2022/02/26 07:37:11;;;;;;;13.43;6.28;;;;;;;5.64;56.60;96755.94;5051280;28;20044;-72
2022/02/26 07:39:36;;;;;;;9.82;6.65;;;;;;;5.77;55.63;96727.66;5050991;28;20096;-70
2022/02/26 07:42:02;;;;;;;12.77;5.57;;;;;;;6.72;54.69;96762.19;5051348;28;20453;-70
2022/02/26 07:44:27;;;;;;;12.38;5.43;;;;;;;6.34;54.35;96733.78;5065911;28;20025;-70
2022/02/26 07:46:53;;;;;;;8.02;5.68;;;;;;;6.07;56.35;96754.69;5050052;28;20029;-74
2022/02/26 07:49:18;;;;;;;8.25;3.38;;;;;;;4.59;58.82;96769.88;5050840;28;20067;-67
2022/02/26 07:51:44;;;;;;;11.43;3.38;;;;;;;4.65;58.84;96776.09;5049640;28;20021;-68
2022/02/26 07:54:09;;;;;;;11.63;2.50;;;;;;;4.02;61.13;96787.91;5049986;28;20033;-70
2022/02/26 07:56:34;;;;;;;10.82;2.72;;;;;;;5.18;58.56;96786.59;5050850;28;20385;-75
2022/02/26 07:59:00;;;;;;;6.97;3.00;;;;;;;4.67;59.49;96790.66;5050613;28;20029;-72
2022/02/26 08:01:25;;;;;;;15.88;3.83;;;;;;;5.09;58.74;96758.97;5066690;28;20021;-71
2022/02/26 08:03:51;;;;;;;14.18;5.20;;;;;;;5.02;60.84;96803.09;5050623;28;20025;-68
2022/02/26 08:06:16;;;;;;;22.08;8.48;;;;;;;6.07;59.79;96796.16;5050179;28;20025;-74
2022/02/26 08:08:42;;;;;;;18.75;8.40;;;;;;;5.82;61.25;96780.56;5050304;28;20085;-73
2022/02/26 08:11:07;;;;;;;22.17;11.52;;;;;;;6.01;61.92;96765.41;5050167;28;20025;-72
2022/02/26 08:13:33;;;;;;;25.23;11.77;;;;;;;6.48;60.79;96769.44;5049641;28;20025;-69
2022/02/26 08:15:58;;;;;;;33.08;14.30;;;;;;;6.94;57.79;96780.78;5050734;28;20029;-72
2022/02/26 08:18:24;;;;;;;27.23;12.48;;;;;;;6.46;60.06;96781.31;5050530;28;20477;-70
2022/02/26 08:20:49;;;;;;;25.85;11.50;;;;;;;6.10;58.82;96780.66;5049940;28;20033;-72
2022/02/26 08:23:15;;;;;;;21.80;9.50;;;;;;;6.14;59.75;96789.72;5049115;28;20017;-71
2022/02/26 08:25:41;;;;;;;24.85;10.18;;;;;;;6.42;59.99;96794.19;5050668;28;20021;-72
2022/02/26 08:28:06;;;;;;;21.17;9.65;;;;;;;6.72;58.41;96783.34;5050391;28;20508;-71
2022/02/26 08:30:32;;;;;;;22.20;10.90;;;;;;;7.43;58.57;96791.59;5050076;28;20397;-70
2022/02/26 08:32:58;;;;;;;16.10;9.02;;;;;;;6.57;58.71;96783.09;5048588;28;20040;-74
2022/02/26 08:35:25;;;;;;;18.33;9.73;;;;;;;7.62;57.48;96786.03;5049700;28;20025;-69
2022/02/26 08:37:50;;;;;;;16.65;8.80;;;;;;;6.55;56.27;96773.78;5049142;28;20396;-69
2022/02/26 08:40:17;;;;;;;16.65;8.80;;;;;;;6.54;56.32;96804.69;5048699;28;20017;-68
2022/02/26 08:42:43;;;;;;;23.55;8.90;;;;;;;6.17;57.36;96809.56;5050374;28;20032;-68
2022/02/26 08:45:09;;;;;;;13.25;8.35;;;;;;;5.91;58.49;96805.59;5050384;28;20029;-70
2022/02/26 08:47:35;;;;;;;13.27;8.30;;;;;;;6.89;58.00;96811.66;5050455;28;20106;-69
2022/02/26 08:50:03;;;;;;;15.40;7.50;;;;;;;6.09;57.90;96813.38;5049696;28;20076;-71
2022/02/26 08:52:28;;;;;;;16.63;7.88;;;;;;;6.28;56.51;96800.00;5048680;28;20119;-70
2022/02/26 08:54:54;;;;;;;11.27;7.65;;;;;;;6.96;55.33;96791.97;5051664;28;20160;-70
2022/02/26 08:57:19;;;;;;;12.73;7.22;;;;;;;6.52;55.30;96780.34;5053319;28;20677;-69
2022/02/26 08:59:45;;;;;;;8.05;5.07;;;;;;;6.81;52.89;96793.53;5054198;28;20107;-70
2022/02/26 09:02:11;;;;;;;9.13;4.30;;;;;;;5.99;52.55;96823.75;5053027;28;20068;-68
2022/02/26 09:04:37;;;;;;;9.23;3.65;;;;;;;5.04;54.30;96797.59;5054470;28;20029;-69
2022/02/26 09:07:03;;;;;;;9.30;4.40;;;;;;;5.73;53.30;96783.59;5053460;28;20036;-71
2022/02/26 09:09:28;;;;;;;8.32;3.45;;;;;;;5.83;51.11;96785.59;5052457;28;20029;-70
2022/02/26 09:11:54;;;;;;;7.70;4.07;;;;;;;6.46;52.51;96807.75;5053782;28;20469;-70
2022/02/26 09:14:19;;;;;;;5.57;3.60;;;;;;;6.52;50.67;96801.50;5052660;28;20363;-71
2022/02/26 09:16:45;;;;;;;13.05;3.90;;;;;;;6.28;50.39;96829.84;5052762;28;20037;-70
2022/02/26 09:19:11;;;;;;;8.52;4.20;;;;;;;6.88;50.06;96810.84;5068742;28;20466;-71
2022/02/26 09:21:36;;;;;;;10.40;3.90;;;;;;;6.86;49.54;96797.09;5052921;28;20032;-70
2022/02/26 09:24:02;;;;;;;6.60;3.70;;;;;;;6.32;50.96;96830.19;5068911;28;20032;-70
2022/02/26 09:26:28;;;;;;;11.98;4.38;;;;;;;6.23;51.58;96824.47;5053718;28;20535;-71
2022/02/26 09:28:54;;;;;;;13.25;4.20;;;;;;;7.92;48.05;96814.75;5053593;28;20644;-73
2022/02/26 09:31:19;;;;;;;7.60;3.40;;;;;;;6.63;48.79;96800.63;5053686;28;20032;-73
2022/02/26 09:33:46;;;;;;;9.63;4.25;;;;;;;6.67;49.19;96820.28;5053340;28;20025;-71
2022/02/26 09:36:11;;;;;;;11.57;3.53;;;;;;;6.27;48.68;96782.53;5053005;28;20112;-72
2022/02/26 09:38:39;;;;;;;9.68;3.58;;;;;;;6.17;49.87;96825.41;5053154;28;20572;-70
2022/02/26 09:41:05;;;;;;;10.73;3.25;;;;;;;5.90;48.69;96815.34;5053261;28;20100;-71
2022/02/26 09:43:32;;;;;;;8.55;4.00;;;;;;;6.77;46.80;96769.41;5053469;28;20025;-71
2022/02/26 09:46:00;;;;;;;12.18;4.35;;;;;;;6.95;46.93;96748.00;5053456;28;20477;-70
2022/02/26 09:48:27;;;;;;;10.20;3.90;;;;;;;7.91;46.08;96797.28;5052027;28;20040;-71
2022/02/26 09:50:53;;;;;;;10.18;3.92;;;;;;;7.23;46.74;96809.84;5052763;28;20029;-69
2022/02/26 09:53:20;;;;;;;4.90;3.05;;;;;;;6.36;47.95;96823.41;5051908;28;20013;-71
2022/02/26 09:55:46;;;;;;;12.50;3.35;;;;;;;5.98;47.79;96806.28;5053141;28;20445;-72
2022/02/26 09:58:16;;;;;;;15.10;3.88;;;;;;;6.54;47.22;96819.75;5053036;28;20033;-69
2022/02/26 10:00:43;;;;;;;7.13;3.33;;;;;;;6.13;46.91;96816.34;5052798;28;20028;-70
2022/02/26 10:03:29;;;;;;;7.82;4.03;;;;;;;7.00;45.28;96816.06;5053039;28;20025;-71
2022/02/26 10:06:28;;;;;;;8.60;3.13;;;;;;;7.22;43.96;96816.97;5051165;28;20025;-71
2022/02/26 10:08:55;;;;;;;12.15;2.95;;;;;;;6.69;45.27;96801.53;5052584;28;20056;-70
2022/02/26 10:11:29;;;;;;;9.23;3.10;;;;;;;6.87;43.78;96819.03;5052856;28;20025;-71
2022/02/26 10:14:08;;;;;;;4.22;2.15;;;;;;;7.59;41.05;96805.06;5051757;28;20025;-71
2022/02/26 10:16:52;;;;;;;7.93;2.70;;;;;;;7.54;41.63;96809.22;5051774;28;20021;-71
2022/02/26 10:19:26;;;;;;;7.93;2.22;;;;;;;7.46;39.76;96817.59;5052992;28;20025;-71
2022/02/26 10:21:56;;;;;;;7.47;2.22;;;;;;;7.51;41.00;96812.34;5052428;28;20430;-71
2022/02/26 10:24:21;;;;;;;9.00;2.83;;;;;;;8.37;40.08;96824.34;5051675;28;20029;-72
2022/02/26 10:27:00;;;;;;;9.15;2.38;;;;;;;6.91;40.08;96826.25;5051739;28;20070;-76
2022/02/26 10:29:27;;;;;;;11.57;2.90;;;;;;;7.39;39.20;96821.44;5051405;28;20509;-72
2022/02/26 10:31:55;;;;;;;6.15;2.83;;;;;;;8.61;37.00;96791.19;5052515;28;20025;-71
2022/02/26 10:34:25;;;;;;;8.27;2.70;;;;;;;9.17;35.53;96815.56;5052687;28;20599;-70
2022/02/26 10:37:05;;;;;;;8.68;2.38;;;;;;;9.29;36.76;96812.75;5051881;28;20491;-70
2022/02/26 10:39:33;;;;;;;6.38;2.45;;;;;;;8.42;38.73;96805.84;5050459;28;20511;-71
2022/02/26 10:41:59;;;;;;;6.57;2.25;;;;;;;9.60;36.67;96808.44;5052264;28;20386;-71
2022/02/26 10:44:24;;;;;;;7.30;2.30;;;;;;;7.15;41.31;96808.38;5050545;28;20025;-72
2022/02/26 10:46:50;;;;;;;9.82;2.53;;;;;;;7.09;39.94;96809.34;5052350;28;20174;-73
2022/02/26 10:49:17;;;;;;;6.57;2.13;;;;;;;7.48;38.53;96762.56;5052336;28;20021;-73
2022/02/26 10:51:45;;;;;;;7.57;2.00;;;;;;;6.01;42.98;96800.53;5050375;28;20052;-73
2022/02/26 10:54:19;;;;;;;6.00;2.30;;;;;;;6.62;41.43;96806.97;5050558;28;20027;-70
2022/02/26 10:56:44;;;;;;;7.97;2.10;;;;;;;6.33;41.98;96810.66;5053315;28;20103;-70
2022/02/26 10:59:25;;;;;;;9.75;2.53;;;;;;;6.20;40.89;96786.13;5052251;28;20559;-70
2022/02/26 11:02:16;;;;;;;9.80;2.80;;;;;;;6.59;42.00;96806.63;5050638;28;20162;-68
2022/02/26 11:04:42;;;;;;;11.13;2.30;;;;;;;7.23;38.89;96796.59;5052042;28;20525;-69
2022/02/26 11:07:10;;;;;;;7.50;1.48;;;;;;;6.16;41.47;96823.81;5051128;28;20036;-70
2022/02/26 11:09:39;;;;;;;6.55;2.72;;;;;;;7.36;39.74;96796.25;5051418;28;20021;-69
2022/02/26 11:12:05;;;;;;;10.18;2.65;;;;;;;6.91;39.92;96812.22;5051570;28;20400;-69
2022/02/26 11:14:35;;;;;;;6.32;2.30;;;;;;;7.23;38.71;96802.69;5050429;28;20040;-73
2022/02/26 11:17:02;;;;;;;5.28;1.98;;;;;;;8.28;36.29;96813.34;5050424;28;20485;-70
2022/02/26 11:19:29;;;;;;;4.55;1.77;;;;;;;8.69;36.08;96808.50;5049194;28;20546;-75
2022/02/26 11:21:57;;;;;;;7.20;2.50;;;;;;;7.49;38.94;96805.72;5050962;28;20029;-68
2022/02/26 11:24:22;;;;;;;7.95;2.00;;;;;;;7.43;38.95;96802.19;5050180;28;20055;-68
2022/02/26 11:26:48;;;;;;;5.75;1.75;;;;;;;6.62;40.42;96809.63;5050124;28;20044;-69
2022/02/26 11:29:16;;;;;;;4.15;1.80;;;;;;;6.24;41.49;96768.78;5049966;28;20021;-69
2022/02/26 11:31:49;;;;;;;7.35;2.08;;;;;;;8.55;38.09;96747.13;5050012;28;20020;-70
2022/02/26 11:34:23;;;;;;;8.40;1.63;;;;;;;6.46;39.56;96808.53;5049706;28;20445;-73
2022/02/26 11:36:52;;;;;;;8.23;2.00;;;;;;;8.49;36.56;96787.88;5049655;28;20033;-74